Weather reports worldwide

Advertisment
Arties, Spain (8107): temperature & dewpoint: 06.12.2019 17:00:00 - 12.12.2019 17:00:00 (CET)Arties, Spain (8107): wind speed & gusts: 06.12.2019 17:00:00 - 12.12.2019 17:00:00 (CET)Arties, Spain (8107): wind direction: 06.12.2019 17:00:00 - 12.12.2019 17:00:00 (CET)Arties, Spain (8107): precipitation: 06.12.2019 17:00:00 - 12.12.2019 17:00:00 (CET)
Date & Time tt [°C] td [°C] ff [km/h] ff [kn] fx [km/h] fx [kn] dd rr [mm]
12.12.2019 17:00:00 - - - - - - - -
12.12.2019 16:00:00 5,1 2,3 1 1 7 4 ENE 0,0
12.12.2019 15:00:00 5,2 2,3 5 3 9 5 ENE 0,0
12.12.2019 14:00:00 5,4 2,3 3 2 6 3 NNE 0,0
12.12.2019 13:00:00 5,0 2,1 3 2 9 5 E -
12.12.2019 12:00:00 3,7 1,9 0 0 5 3 W 0,0
12.12.2019 11:00:00 2,1 1,3 0 0 6 4 N 0,0
12.12.2019 10:00:00 1,6 0,9 3 2 6 4 E 0,0
12.12.2019 09:00:00 0,9 0,4 2 1 5 3 ESE 0,0
12.12.2019 08:00:00 0,6 0,0 2 1 6 3 ENE 0,2
12.12.2019 07:00:00 0,7 0,2 0 0 7 4 S -
12.12.2019 06:00:00 0,9 0,2 0 0 14 8 SW 0,3
12.12.2019 05:00:00 0,8 0,2 3 2 10 5 SSE 0,2
12.12.2019 04:00:00 0,8 0,2 2 1 11 6 S 0,4
12.12.2019 03:00:00 0,7 0,0 1 1 18 10 SE 0,4
12.12.2019 02:00:00 1,3 -0,3 3 2 18 10 SW 0,2
12.12.2019 01:00:00 1,3 -0,5 2 1 19 11 NNE -
12.12.2019 00:00:00 1,4 -0,7 3 1 24 13 ENE 0,1
11.12.2019 23:00:00 0,8 -0,3 8 4 18 10 ENE 0,6
11.12.2019 22:00:00 0,4 -0,3 0 0 5 3 SSW 0,3
11.12.2019 21:00:00 0,3 -0,3 1 1 6 3 SSW 0,0
11.12.2019 20:00:00 -0,3 -1,2 1 1 6 4 NNW 0,0
11.12.2019 19:00:00 0,7 -0,3 1 1 6 3 SE -
11.12.2019 18:00:00 1,7 0,6 1 1 9 5 SSE 0,0
11.12.2019 17:00:00 2,4 0,9 3 2 19 11 SE 0,1
11.12.2019 16:00:00 3,1 1,9 5 3 18 10 WSW 0,2
11.12.2019 15:00:00 3,5 1,9 5 3 17 9 ENE 0,8
11.12.2019 14:00:00 4,2 2,3 1 0 20 11 SSE 1,7
11.12.2019 13:00:00 6,2 0,0 7 4 32 17 SW -
11.12.2019 12:00:00 7,5 -1,7 9 5 22 12 SW 0,0
11.12.2019 11:00:00 6,0 -1,2 1 1 16 9 SW 0,0
11.12.2019 10:00:00 4,3 -2,0 4 2 16 8 SSE 0,0
11.12.2019 09:00:00 2,7 -2,0 6 3 12 6 E 0,0
11.12.2019 08:00:00 2,7 -2,7 1 1 16 9 S 0,0
11.12.2019 07:00:00 1,5 -2,7 5 3 12 7 ENE -
11.12.2019 06:00:00 0,6 -2,2 3 2 9 5 ENE 0,0
11.12.2019 05:00:00 2,1 -2,7 3 2 13 7 E 0,0
11.12.2019 04:00:00 2,9 -2,7 7 4 16 9 ENE 0,0
11.12.2019 03:00:00 1,1 -2,5 2 1 16 9 NE 0,0
11.12.2019 02:00:00 0,6 -3,3 5 3 12 7 ENE 0,0
11.12.2019 01:00:00 1,2 -4,5 4 2 16 8 E -
11.12.2019 00:00:00 0,2 -4,2 5 3 16 8 E 0,0
10.12.2019 23:00:00 0,3 -3,3 5 3 13 7 E 0,0
10.12.2019 22:00:00 0,4 -2,7 5 3 13 7 ENE 0,0
10.12.2019 21:00:00 0,4 -2,5 1 1 13 7 N 0,0
10.12.2019 20:00:00 0,5 -2,5 5 3 14 7 ENE 0,0
10.12.2019 19:00:00 0,5 -2,5 3 2 16 9 ENE -
10.12.2019 18:00:00 1,6 -2,0 7 4 17 9 E 0,0
10.12.2019 17:00:00 1,2 -1,4 4 2 16 9 E 0,0
10.12.2019 16:00:00 1,8 -1,0 6 3 15 8 E 0,0
10.12.2019 15:00:00 1,7 -0,7 5 3 12 6 E 0,0
10.12.2019 14:00:00 2,5 -0,3 7 4 13 7 ENE 0,0
10.12.2019 13:00:00 2,9 0,4 2 1 7 4 E -
10.12.2019 12:00:00 0,6 -1,2 4 2 8 4 ENE 0,0
10.12.2019 11:00:00 0,0 -1,7 3 1 14 8 E 0,0
10.12.2019 10:00:00 -0,5 -3,6 6 3 13 7 ENE 0,0
10.12.2019 09:00:00 -0,5 -3,3 6 3 13 7 ENE 0,0
10.12.2019 08:00:00 -0,4 -1,4 2 1 10 5 E 0,0
10.12.2019 07:00:00 0,7 -0,5 2 1 8 5 SSE -
10.12.2019 06:00:00 1,1 0,4 3 2 11 6 E 0,0
10.12.2019 05:00:00 1,1 0,2 3 2 16 9 SW 0,0
10.12.2019 04:00:00 1,3 0,2 4 2 15 8 WSW 0,0
10.12.2019 03:00:00 1,5 0,2 4 2 19 11 SW 0,1
10.12.2019 02:00:00 1,7 -0,3 4 2 17 9 S 0,0
10.12.2019 01:00:00 2,1 -0,5 3 2 29 16 WSW -
10.12.2019 00:00:00 2,2 0,0 9 5 29 16 SW 0,2
09.12.2019 23:00:00 2,6 -1,0 8 4 35 19 SW 0,2
09.12.2019 22:00:00 2,5 -0,5 7 4 39 21 SW 0,1
09.12.2019 21:00:00 2,8 -1,7 10 5 35 19 SW 0,4
09.12.2019 20:00:00 1,9 -0,5 8 5 37 20 SW 0,4
09.12.2019 19:00:00 2,3 -1,2 13 7 37 20 SW -
09.12.2019 18:00:00 2,4 0,6 7 4 32 18 SW 1,0
09.12.2019 17:00:00 2,7 0,9 9 5 35 19 SW 0,8
09.12.2019 16:00:00 2,4 0,4 9 5 29 16 SW 0,5
09.12.2019 15:00:00 2,7 0,9 9 5 28 15 SW 1,2
09.12.2019 14:00:00 4,9 -2,7 8 5 39 21 SW 0,0
09.12.2019 13:00:00 4,8 -0,7 10 5 26 14 SW -
09.12.2019 12:00:00 4,0 1,3 6 3 26 14 SW 0,6
09.12.2019 11:00:00 2,5 1,5 3 2 23 12 WSW 0,8
09.12.2019 10:00:00 2,3 0,6 4 2 13 7 SSW 0,5
09.12.2019 09:00:00 1,3 -0,7 1 1 11 6 ENE 0,0
09.12.2019 08:00:00 0,7 -1,0 5 3 9 5 ENE 0,0
09.12.2019 07:00:00 1,0 -1,7 1 0 14 7 SE -
09.12.2019 06:00:00 1,5 -2,2 2 1 24 13 SE 0,0
09.12.2019 05:00:00 -1,0 -3,0 3 1 14 8 ENE 0,0
09.12.2019 04:00:00 0,4 -2,2 5 3 15 8 E 0,0
09.12.2019 03:00:00 0,0 -1,2 1 0 16 8 S 0,0
09.12.2019 02:00:00 0,9 0,0 4 2 13 7 E 0,0
09.12.2019 01:00:00 1,8 1,1 3 1 10 6 E -
09.12.2019 00:00:00 3,4 2,9 5 3 11 6 ENE 0,0
08.12.2019 23:00:00 3,9 3,2 3 1 8 4 E 0,0
08.12.2019 22:00:00 4,4 3,8 1 1 8 5 ENE 0,0
08.12.2019 21:00:00 5,0 4,3 0 0 5 3 NNW 0,1
08.12.2019 20:00:00 5,8 5,0 5 3 10 6 ESE 0,9
08.12.2019 19:00:00 5,4 4,1 4 2 9 5 NE -
08.12.2019 18:00:00 6,3 2,3 1 0 11 6 E 0,0
08.12.2019 17:00:00 6,8 2,1 3 2 8 5 E 0,0
08.12.2019 16:00:00 7,2 2,3 2 1 8 4 ENE 0,0
08.12.2019 15:00:00 9,7 0,0 2 1 14 8 SSW 0,0
08.12.2019 14:00:00 8,6 -0,7 3 1 8 5 S 0,0
08.12.2019 13:00:00 5,8 0,4 1 0 4 2 ENE -
08.12.2019 12:00:00 2,2 -1,0 2 1 6 3 ENE 0,0
08.12.2019 11:00:00 0,0 -3,0 0 0 5 3 NE 0,0
08.12.2019 10:00:00 -0,1 -3,3 1 1 7 4 E 0,0
08.12.2019 09:00:00 1,1 -4,5 4 2 15 8 E 0,0
08.12.2019 08:00:00 -0,1 -3,0 3 1 8 4 E 0,0
08.12.2019 07:00:00 0,6 -3,9 1 0 16 8 E -
08.12.2019 06:00:00 0,2 -3,6 1 1 17 9 NE 0,0
08.12.2019 05:00:00 1,3 -3,0 8 4 14 8 ENE 0,0
08.12.2019 04:00:00 0,0 -3,0 1 0 14 8 SE 0,0
08.12.2019 03:00:00 1,8 -3,0 9 5 18 10 ENE 0,0
08.12.2019 02:00:00 0,9 -2,2 9 5 16 8 ENE 0,0
08.12.2019 01:00:00 -0,7 -2,0 2 1 6 3 ENE -
08.12.2019 00:00:00 -0,3 -1,7 1 0 4 2 E 0,0
07.12.2019 23:00:00 0,9 -1,2 3 1 13 7 E 0,0
07.12.2019 22:00:00 0,4 -1,4 1 1 14 7 ESE 0,0
07.12.2019 21:00:00 1,2 -0,5 5 3 10 5 ENE 0,0
07.12.2019 20:00:00 0,2 -1,2 2 1 4 2 NE 0,0
07.12.2019 19:00:00 1,2 -0,7 1 0 6 3 ENE -
07.12.2019 18:00:00 2,7 -0,3 1 0 8 4 SSE 0,0
07.12.2019 17:00:00 4,3 0,0 4 2 9 5 E 0,0
07.12.2019 16:00:00 4,7 0,9 1 1 4 2 E 0,0
07.12.2019 15:00:00 6,9 1,1 0 0 4 2 WSW 0,0
07.12.2019 14:00:00 7,3 0,9 2 1 8 4 ENE 0,0
07.12.2019 13:00:00 9,2 0,2 3 1 8 4 SE -
07.12.2019 12:00:00 3,1 0,4 1 0 4 2 SSE 0,0
07.12.2019 11:00:00 1,7 -0,5 0 0 10 5 E 0,0
07.12.2019 10:00:00 1,0 -1,2 2 1 9 5 E 0,0
07.12.2019 09:00:00 0,7 -2,0 4 2 14 8 ENE 0,0
07.12.2019 08:00:00 0,0 -2,0 5 3 8 5 ENE 0,0
07.12.2019 07:00:00 -0,2 -2,2 2 1 7 4 ENE -
07.12.2019 06:00:00 0,9 -2,0 2 1 12 7 ENE 0,0
07.12.2019 05:00:00 1,9 -2,2 4 2 16 9 ENE 0,0
07.12.2019 04:00:00 1,0 -1,7 5 3 13 7 E 0,0
07.12.2019 03:00:00 0,5 -2,5 4 2 15 8 ENE 0,0
07.12.2019 02:00:00 0,7 -2,0 5 3 13 7 E 0,0
07.12.2019 01:00:00 0,2 -2,0 1 1 10 5 E -
07.12.2019 00:00:00 0,6 -1,7 2 1 10 5 E 0,0
06.12.2019 23:00:00 0,0 -1,7 3 2 6 3 ENE 0,0
06.12.2019 22:00:00 0,8 -1,2 3 1 10 5 ENE 0,0
06.12.2019 21:00:00 2,0 -1,0 5 3 13 7 E 0,0
06.12.2019 20:00:00 1,4 -0,7 1 0 12 6 NE 0,0
06.12.2019 19:00:00 1,9 -0,3 4 2 9 5 E -
06.12.2019 18:00:00 2,1 0,2 1 1 7 4 E 0,0
06.12.2019 17:00:00 3,3 1,1 1 1 5 3 ESE 0,0

tt = temperature
td = dewpoint
ff = wind speed
fx = gusts
dd = wind direction
rr = precipitation

Next stations